TAF and METAR

METAR for Qaisumah Domestic Airport

OEPA 290500Z 30006KT CAVOK 27/10 Q1009 NOSIG
Report created 29. sep 07:00
wind 6 knots from WNW (300°) Clear sky Temperature 27° with dewpoint at 10° (Humidity 34.50%) Pressure 1009 hPa no significant weather change expected the next couple of hours

TAF for Qaisumah Domestic Airport

TAF OEPA 282300Z 2900/3006 26006KT CAVOK BECMG 2904/2906 33015KT BECMG 2920/2922 28008KT
Report created 29. sep 01:00

between 29. sep 02:00 - 30. sep 08:00

wind 6 knots from W (260°) Clear sky

becoming between 29. sep 06:00 - 29. sep 08:00

wind 15 knots from NNW (330°)

becoming between 29. sep 22:00 - 30. sep 00:00

wind 8 knots from W (280°)
Qaisumah Domestic Airport in Saudi Arabia at 355m

Latest 5 airports